createdAt,value
2023-03-05T00:00:02.001Z,56.15
2023-03-05T00:02:29.804Z,56.24
2023-03-05T00:04:57.629Z,55.59
2023-03-05T00:07:25.345Z,55.62
2023-03-05T00:09:53.112Z,56.12
2023-03-05T00:12:22.283Z,55.86
2023-03-05T00:14:50.072Z,55.46
2023-03-05T00:17:17.843Z,55.89
2023-03-05T00:19:45.599Z,55.94
2023-03-05T00:22:13.306Z,56.10
2023-03-05T00:24:40.988Z,56.18
2023-03-05T00:27:08.725Z,56.09
2023-03-05T00:29:37.801Z,55.67
2023-03-05T00:32:05.799Z,56.00
2023-03-05T00:34:33.560Z,55.76
2023-03-05T00:37:01.257Z,55.61
2023-03-05T00:39:29.063Z,55.79
2023-03-05T00:41:56.900Z,56.56
2023-03-05T00:44:24.637Z,56.45
2023-03-05T00:46:53.806Z,56.03
2023-03-05T00:49:21.640Z,56.60
2023-03-05T00:51:49.601Z,56.24
2023-03-05T00:54:17.380Z,56.18
2023-03-05T00:56:45.141Z,56.21
2023-03-05T00:59:12.927Z,56.83
2023-03-05T01:01:40.919Z,56.33
2023-03-05T01:04:10.579Z,56.38
2023-03-05T01:06:42.659Z,56.92
2023-03-05T01:09:10.404Z,56.66
2023-03-05T01:11:38.379Z,56.72
2023-03-05T01:14:06.137Z,57.02
2023-03-05T01:16:33.953Z,56.82
2023-03-05T01:19:01.698Z,56.50
2023-03-05T01:21:30.792Z,56.55
2023-03-05T01:23:58.869Z,57.17
2023-03-05T01:26:26.594Z,56.47
2023-03-05T01:28:54.307Z,56.83
2023-03-05T01:31:22.498Z,56.96
2023-03-05T01:33:52.991Z,57.64
2023-03-05T01:36:20.998Z,56.57
2023-03-05T01:38:50.051Z,57.01
2023-03-05T01:41:19.417Z,56.62
2023-03-05T01:43:48.563Z,56.79
2023-03-05T01:46:26.473Z,56.93
2023-03-05T01:48:58.533Z,57.00
2023-03-05T01:51:29.209Z,57.39
2023-03-05T01:54:00.101Z,57.42
2023-03-05T01:56:30.146Z,57.13
2023-03-05T01:59:03.499Z,57.46
2023-03-05T02:01:40.464Z,57.38
2023-03-05T02:04:10.321Z,57.64
2023-03-05T02:06:39.638Z,57.90
2023-03-05T02:09:08.780Z,57.77
2023-03-05T02:11:37.457Z,57.31
2023-03-05T02:14:08.434Z,57.46
2023-03-05T02:16:39.132Z,58.10
2023-03-05T02:19:09.730Z,58.00
2023-03-05T02:21:41.628Z,57.22
2023-03-05T02:24:12.892Z,57.73
2023-03-05T02:26:40.698Z,57.40
2023-03-05T02:29:10.521Z,57.54
2023-03-05T02:31:39.020Z,57.10
2023-03-05T02:34:07.489Z,57.31
2023-03-05T02:36:35.196Z,57.37
2023-03-05T02:39:04.421Z,57.39
2023-03-05T02:41:32.138Z,57.33
2023-03-05T02:43:59.818Z,57.26
2023-03-05T02:46:27.569Z,58.00
2023-03-05T02:48:55.306Z,57.71
2023-03-05T02:51:23.021Z,58.12
2023-03-05T02:53:50.763Z,57.54
2023-03-05T02:56:20.162Z,57.72
2023-03-05T02:58:47.870Z,57.95
2023-03-05T03:01:15.659Z,58.05
2023-03-05T03:03:43.360Z,57.62
2023-03-05T03:06:11.060Z,58.32
2023-03-05T03:08:38.866Z,57.72
2023-03-05T03:11:08.116Z,57.59
2023-03-05T03:13:37.408Z,57.34
2023-03-05T03:16:06.703Z,58.10
2023-03-05T03:18:34.416Z,57.39
2023-03-05T03:21:02.232Z,57.76
2023-03-05T03:23:30.267Z,57.65
2023-03-05T03:25:58.837Z,57.25
2023-03-05T03:28:27.020Z,57.95
2023-03-05T03:30:56.227Z,58.10
2023-03-05T03:33:23.991Z,57.53
2023-03-05T03:35:51.809Z,57.66
2023-03-05T03:38:19.768Z,57.56
2023-03-05T03:40:47.461Z,58.00
2023-03-05T03:43:15.206Z,57.56
2023-03-05T03:45:43.992Z,57.56
2023-03-05T03:48:13.318Z,57.82
2023-03-05T03:50:41.132Z,57.89
2023-03-05T03:53:09.493Z,57.91
2023-03-05T03:55:37.227Z,57.89
2023-03-05T03:58:05.076Z,57.71
2023-03-05T04:00:32.914Z,57.40
2023-03-05T04:03:00.668Z,57.93
2023-03-05T04:05:29.751Z,58.04
2023-03-05T04:07:58.444Z,57.53
2023-03-05T04:10:26.225Z,58.04
2023-03-05T04:12:53.936Z,58.27
2023-03-05T04:15:22.025Z,57.86
2023-03-05T04:17:49.838Z,58.15
2023-03-05T04:20:18.195Z,58.51
2023-03-05T04:22:47.260Z,58.00
2023-03-05T04:25:15.003Z,58.39
2023-03-05T04:27:42.720Z,58.14
2023-03-05T04:30:14.695Z,58.24
2023-03-05T04:32:42.511Z,57.92
2023-03-05T04:35:10.760Z,58.41
2023-03-05T04:37:38.527Z,58.45
2023-03-05T04:40:09.359Z,58.12
2023-03-05T04:42:37.008Z,57.78
2023-03-05T04:45:06.730Z,57.71
2023-03-05T04:47:34.931Z,57.87
2023-03-05T04:50:03.621Z,58.65
2023-03-05T04:52:31.444Z,58.35
2023-03-05T04:54:59.225Z,58.62
2023-03-05T04:57:28.325Z,58.16
2023-03-05T04:59:56.073Z,58.07
2023-03-05T05:02:23.793Z,58.66
2023-03-05T05:04:53.580Z,58.43
2023-03-05T05:07:21.552Z,58.23
2023-03-05T05:09:49.223Z,58.14
2023-03-05T05:12:17.188Z,57.94
2023-03-05T05:14:46.471Z,58.33
2023-03-05T05:17:14.249Z,58.62
2023-03-05T05:19:42.087Z,58.18
2023-03-05T05:22:09.959Z,57.73
2023-03-05T05:24:37.654Z,58.74
2023-03-05T05:27:05.739Z,58.13
2023-03-05T05:29:33.464Z,58.75
2023-03-05T05:32:02.617Z,58.28
2023-03-05T05:34:30.410Z,58.00
2023-03-05T05:36:58.236Z,58.25
2023-03-05T05:39:25.978Z,58.33
2023-03-05T05:41:54.151Z,58.00
2023-03-05T05:44:21.959Z,58.15
2023-03-05T05:46:49.756Z,58.52
2023-03-05T05:49:19.080Z,58.42
2023-03-05T05:51:46.859Z,58.74
2023-03-05T05:54:15.082Z,58.63
2023-03-05T05:56:43.351Z,58.56
2023-03-05T05:59:11.654Z,58.39
2023-03-05T06:01:39.438Z,58.97
2023-03-05T06:04:07.196Z,58.18
2023-03-05T06:06:36.294Z,58.00
2023-03-05T06:09:04.640Z,56.96
2023-03-05T06:11:34.008Z,57.47
2023-03-05T06:14:02.920Z,55.94
2023-03-05T06:16:31.238Z,55.76
2023-03-05T06:19:00.072Z,54.79
2023-03-05T06:21:27.759Z,55.62
2023-03-05T06:23:58.628Z,55.54
2023-03-05T06:26:26.793Z,55.66
2023-03-05T06:28:55.341Z,56.75
2023-03-05T06:31:26.319Z,56.53
2023-03-05T06:33:55.640Z,57.36
2023-03-05T06:36:26.032Z,56.94
2023-03-05T06:38:54.532Z,57.41
2023-03-05T06:41:25.380Z,57.37
2023-03-05T06:43:53.322Z,57.83
2023-03-05T06:46:23.000Z,57.57
2023-03-05T06:48:51.904Z,58.69
2023-03-05T06:51:22.271Z,57.80
2023-03-05T06:53:50.559Z,58.42
2023-03-05T06:56:19.005Z,58.36
2023-03-05T06:58:50.578Z,58.46
2023-03-05T07:01:18.986Z,59.05
2023-03-05T07:03:49.572Z,58.71
2023-03-05T07:06:17.413Z,59.14
2023-03-05T07:08:45.804Z,59.05
2023-03-05T07:11:15.200Z,59.54
2023-03-05T07:13:43.624Z,59.70
2023-03-05T07:16:17.477Z,59.61
2023-03-05T07:18:45.758Z,60.13
2023-03-05T07:21:17.021Z,59.29
2023-03-05T07:23:44.749Z,59.37
2023-03-05T07:26:13.190Z,59.66
2023-03-05T07:28:41.906Z,59.63
2023-03-05T07:31:15.826Z,60.20
2023-03-05T07:33:43.617Z,59.29
2023-03-05T07:36:12.730Z,58.92
2023-03-05T07:38:40.827Z,58.51
2023-03-05T07:41:11.236Z,57.84
2023-03-05T07:43:39.713Z,57.82
2023-03-05T07:46:08.974Z,57.06
2023-03-05T07:48:38.617Z,56.31
2023-03-05T07:51:08.406Z,55.82
2023-03-05T07:53:36.142Z,55.55
2023-03-05T07:56:04.214Z,56.15
2023-03-05T07:58:31.976Z,56.56
2023-03-05T08:00:59.683Z,56.43
2023-03-05T08:03:27.530Z,56.80
2023-03-05T08:05:56.671Z,57.38
2023-03-05T08:08:24.400Z,57.68
2023-03-05T08:10:52.144Z,57.81
2023-03-05T08:13:19.869Z,58.53
2023-03-05T08:15:47.649Z,59.01
2023-03-05T08:18:18.624Z,58.56
2023-03-05T08:20:46.322Z,58.95
2023-03-05T08:23:15.520Z,59.06
2023-03-05T08:25:43.321Z,59.45
2023-03-05T08:28:11.050Z,59.74
2023-03-05T08:30:41.252Z,59.42
2023-03-05T08:33:08.944Z,59.17
2023-03-05T08:35:36.707Z,59.44
2023-03-05T08:38:04.639Z,59.75
2023-03-05T08:40:34.593Z,60.05
2023-03-05T08:43:02.317Z,59.76
2023-03-05T08:45:30.062Z,59.86
2023-03-05T08:47:57.817Z,60.53
2023-03-05T08:50:26.025Z,60.30
2023-03-05T08:52:53.754Z,60.58
2023-03-05T08:55:21.470Z,60.72
2023-03-05T08:57:50.534Z,60.77
2023-03-05T09:00:18.950Z,59.88
2023-03-05T09:02:46.655Z,60.03
2023-03-05T09:05:14.787Z,60.82
2023-03-05T09:07:42.572Z,60.44
2023-03-05T09:10:13.673Z,60.47
2023-03-05T09:12:41.520Z,60.63
2023-03-05T09:15:12.881Z,60.43
2023-03-05T09:17:41.983Z,60.19
2023-03-05T09:20:14.115Z,60.29
2023-03-05T09:22:41.861Z,60.65
2023-03-05T09:25:12.621Z,60.52
2023-03-05T09:27:40.505Z,60.26
2023-03-05T09:30:12.805Z,60.76
2023-03-05T09:32:40.869Z,60.84
2023-03-05T09:35:09.827Z,59.98
2023-03-05T09:37:37.699Z,60.09
2023-03-05T09:40:06.095Z,60.43
2023-03-05T09:43:05.085Z,60.36
2023-03-05T09:45:41.209Z,60.06
2023-03-05T09:48:18.345Z,60.21
2023-03-05T09:50:50.577Z,60.13
2023-03-05T09:53:34.939Z,60.04
2023-03-05T09:56:11.495Z,60.18
2023-03-05T09:58:42.010Z,60.05
2023-03-05T10:01:14.533Z,59.57
2023-03-05T10:03:53.146Z,60.16
2023-03-05T10:06:24.541Z,60.10
2023-03-05T10:08:58.804Z,60.32
2023-03-05T10:11:38.778Z,59.67
2023-03-05T10:14:07.834Z,59.33
2023-03-05T10:16:53.978Z,59.91
2023-03-05T10:19:36.331Z,59.70
2023-03-05T10:22:17.011Z,59.00
2023-03-05T10:24:58.200Z,58.66
2023-03-05T10:27:39.729Z,57.69
2023-03-05T10:30:24.621Z,57.14
2023-03-05T10:33:00.805Z,56.60
2023-03-05T10:35:53.835Z,56.11
2023-03-05T10:38:38.239Z,55.67
2023-03-05T10:41:14.872Z,56.54
2023-03-05T10:43:52.379Z,55.71
2023-03-05T10:46:23.740Z,56.06
2023-03-05T10:48:56.562Z,56.79
2023-03-05T10:51:34.444Z,56.43
2023-03-05T10:54:10.956Z,57.05
2023-03-05T10:56:38.734Z,56.50
2023-03-05T10:59:06.442Z,57.12
2023-03-05T11:01:34.416Z,57.52
2023-03-05T11:04:04.641Z,57.64
2023-03-05T11:06:35.652Z,58.27
2023-03-05T11:09:19.082Z,58.60
2023-03-05T11:12:04.337Z,59.92
2023-03-05T11:14:34.146Z,60.75
2023-03-05T11:17:03.091Z,60.81
2023-03-05T11:19:33.089Z,61.04
2023-03-05T11:22:15.996Z,60.75
2023-03-05T11:24:43.790Z,61.11
2023-03-05T11:27:27.259Z,61.17
2023-03-05T11:29:55.092Z,61.83
2023-03-05T11:32:25.529Z,60.97
2023-03-05T11:34:55.719Z,61.12
2023-03-05T11:37:26.211Z,61.02
2023-03-05T11:40:21.583Z,60.88
2023-03-05T11:42:56.477Z,61.30
2023-03-05T11:45:26.641Z,60.28
2023-03-05T11:47:56.573Z,61.04
2023-03-05T11:50:27.797Z,60.34
2023-03-05T11:52:58.554Z,61.09
2023-03-05T11:55:31.506Z,60.37
2023-03-05T11:58:13.930Z,60.52
2023-03-05T12:00:45.746Z,59.95
2023-03-05T12:03:17.300Z,60.05
2023-03-05T12:05:51.468Z,59.01
2023-03-05T12:08:25.557Z,59.58
2023-03-05T12:10:53.794Z,59.42
2023-03-05T12:13:28.940Z,59.54
2023-03-05T12:16:10.053Z,58.79
2023-03-05T12:18:48.982Z,59.19
2023-03-05T12:21:27.841Z,58.36
2023-03-05T12:24:01.337Z,59.32
2023-03-05T12:27:06.477Z,59.18
2023-03-05T12:29:41.214Z,59.13
2023-03-05T12:32:42.065Z,58.39
2023-03-05T12:35:23.637Z,58.75
2023-03-05T12:38:26.424Z,58.69
2023-03-05T12:41:15.048Z,58.14
2023-03-05T12:43:43.135Z,57.47
2023-03-05T12:46:29.127Z,56.51
2023-03-05T12:48:56.897Z,57.01
2023-03-05T12:51:37.777Z,56.15
2023-03-05T12:54:30.007Z,56.36
2023-03-05T12:56:59.794Z,56.40
2023-03-05T12:59:36.175Z,56.60
2023-03-05T13:02:16.705Z,56.81
2023-03-05T13:04:47.131Z,57.57
2023-03-05T13:07:17.057Z,56.45
2023-03-05T13:09:55.118Z,56.98
2023-03-05T13:12:24.479Z,57.05
2023-03-05T13:15:00.043Z,56.95
2023-03-05T13:17:34.614Z,56.77
2023-03-05T13:20:06.071Z,57.22
2023-03-05T13:22:34.173Z,57.21
2023-03-05T13:25:14.367Z,56.63
2023-03-05T13:27:42.619Z,56.61
2023-03-05T13:30:29.372Z,56.70
2023-03-05T13:33:02.929Z,57.03
2023-03-05T13:35:31.020Z,57.07
2023-03-05T13:37:59.090Z,56.58
2023-03-05T13:40:30.273Z,57.42
2023-03-05T13:43:10.407Z,57.63
2023-03-05T13:45:39.984Z,57.72
2023-03-05T13:48:08.584Z,57.72
2023-03-05T13:50:38.782Z,57.33
2023-03-05T13:53:25.535Z,57.92
2023-03-05T13:55:57.624Z,57.38
2023-03-05T13:58:48.057Z,57.49
2023-03-05T14:01:26.684Z,57.13
2023-03-05T14:03:57.273Z,57.99
2023-03-05T14:06:28.802Z,57.72
2023-03-05T14:09:05.176Z,57.31
2023-03-05T14:11:35.354Z,57.21
2023-03-05T14:14:10.761Z,57.19
2023-03-05T14:16:38.509Z,57.15
2023-03-05T14:19:09.204Z,56.94
2023-03-05T14:21:48.148Z,57.41
2023-03-05T14:24:22.703Z,57.27
2023-03-05T14:26:56.510Z,56.69
2023-03-05T14:29:26.124Z,56.91
2023-03-05T14:31:56.638Z,57.56
2023-03-05T14:34:29.202Z,57.30
2023-03-05T14:37:00.854Z,57.53
2023-03-05T14:39:46.574Z,57.03
2023-03-05T14:42:38.442Z,57.56
2023-03-05T14:45:13.600Z,57.29
2023-03-05T14:47:41.606Z,57.56
2023-03-05T14:50:11.597Z,56.42
2023-03-05T14:52:39.424Z,57.00
2023-03-05T14:55:07.983Z,56.88
2023-03-05T14:57:37.294Z,56.77
2023-03-05T15:00:05.905Z,56.26
2023-03-05T15:02:33.632Z,55.86
2023-03-05T15:05:01.405Z,54.71
2023-03-05T15:07:32.586Z,54.46
2023-03-05T15:10:00.774Z,53.44
2023-03-05T15:12:28.692Z,53.19
2023-03-05T15:14:57.991Z,52.83
2023-03-05T15:17:31.508Z,52.78
2023-03-05T15:19:59.237Z,52.16
2023-03-05T15:22:26.990Z,51.32
2023-03-05T15:24:54.679Z,51.46
2023-03-05T15:27:22.404Z,50.78
2023-03-05T15:29:50.169Z,50.96
2023-03-05T15:32:19.338Z,50.53
2023-03-05T15:34:47.097Z,50.65
2023-03-05T15:37:14.845Z,50.56
2023-03-05T15:39:42.599Z,50.57
2023-03-05T15:42:10.335Z,50.82
2023-03-05T15:44:39.987Z,50.25
2023-03-05T15:47:07.848Z,50.68
2023-03-05T15:49:37.091Z,50.56
2023-03-05T15:52:04.861Z,50.81
2023-03-05T15:54:32.783Z,50.46
2023-03-05T15:57:00.500Z,50.61
2023-03-05T15:59:28.463Z,50.80
2023-03-05T16:01:56.175Z,51.58
2023-03-05T16:04:23.946Z,52.62
2023-03-05T16:06:53.579Z,52.50
2023-03-05T16:09:22.641Z,53.28
2023-03-05T16:11:51.558Z,53.60
2023-03-05T16:14:23.774Z,53.66
2023-03-05T16:16:53.952Z,54.34
2023-03-05T16:19:22.715Z,54.81
2023-03-05T16:21:50.406Z,54.47
2023-03-05T16:24:19.490Z,55.31
2023-03-05T16:26:47.307Z,55.17
2023-03-05T16:29:15.220Z,54.70
2023-03-05T16:31:45.288Z,55.27
2023-03-05T16:34:14.176Z,54.78
2023-03-05T16:36:47.591Z,54.94
2023-03-05T16:39:15.793Z,55.43
2023-03-05T16:41:44.904Z,55.64
2023-03-05T16:44:12.849Z,54.77
2023-03-05T16:46:42.094Z,56.02
2023-03-05T16:49:10.051Z,56.47
2023-03-05T16:51:37.823Z,55.73
2023-03-05T16:54:05.604Z,56.26
2023-03-05T16:56:33.356Z,56.25
2023-03-05T16:59:02.379Z,55.90
2023-03-05T17:01:30.326Z,56.38
2023-03-05T17:03:59.715Z,55.91
2023-03-05T17:06:29.958Z,55.98
2023-03-05T17:08:58.692Z,55.33
2023-03-05T17:11:26.692Z,55.59
2023-03-05T17:13:54.507Z,55.53
2023-03-05T17:16:24.073Z,54.81
2023-03-05T17:18:51.961Z,54.21
2023-03-05T17:21:19.654Z,53.79
2023-03-05T17:23:47.420Z,53.25
2023-03-05T17:26:17.646Z,53.36
2023-03-05T17:28:46.495Z,52.92
2023-03-05T17:31:15.191Z,53.08
2023-03-05T17:33:44.719Z,52.90
2023-03-05T17:36:16.692Z,52.72
2023-03-05T17:38:45.086Z,52.34
2023-03-05T17:41:12.870Z,52.59
2023-03-05T17:43:40.932Z,52.25
2023-03-05T17:46:09.356Z,52.38
2023-03-05T17:48:39.129Z,52.20
2023-03-05T17:51:09.253Z,52.17
2023-03-05T17:53:38.906Z,52.06
2023-03-05T17:56:08.530Z,51.89
2023-03-05T17:58:36.467Z,51.76
2023-03-05T18:01:04.952Z,51.71
2023-03-05T18:03:32.781Z,51.58
2023-03-05T18:06:00.594Z,51.76
2023-03-05T18:08:29.671Z,51.51
2023-03-05T18:10:57.421Z,51.86
2023-03-05T18:13:25.311Z,51.77
2023-03-05T18:15:53.112Z,52.09
2023-03-05T18:18:20.894Z,52.89
2023-03-05T18:20:48.755Z,53.52
2023-03-05T18:23:20.612Z,53.71
2023-03-05T18:25:50.478Z,54.64
2023-03-05T18:28:18.949Z,54.96
2023-03-05T18:30:48.150Z,55.19
2023-03-05T18:33:19.989Z,55.03
2023-03-05T18:35:51.917Z,55.56
2023-03-05T18:38:20.296Z,55.57
2023-03-05T18:40:51.237Z,54.94
2023-03-05T18:43:20.719Z,54.43
2023-03-05T18:45:49.059Z,54.41
2023-03-05T18:48:16.827Z,54.02
2023-03-05T18:50:44.830Z,53.15
2023-03-05T18:53:13.841Z,52.82
2023-03-05T18:55:42.821Z,52.15
2023-03-05T18:58:14.080Z,51.83
2023-03-05T19:00:44.867Z,51.18
2023-03-05T19:03:12.798Z,51.69
2023-03-05T19:05:40.816Z,52.09
2023-03-05T19:08:09.397Z,52.53
2023-03-05T19:10:37.591Z,53.20
2023-03-05T19:13:43.001Z,53.71
2023-03-05T19:16:13.512Z,53.80
2023-03-05T19:19:20.284Z,54.73
2023-03-05T19:21:50.834Z,54.86
2023-03-05T19:24:18.786Z,54.80
2023-03-05T19:26:47.955Z,54.57
2023-03-05T19:29:17.407Z,54.70
2023-03-05T19:31:45.112Z,55.23
2023-03-05T19:34:13.122Z,55.26
2023-03-05T19:36:40.853Z,55.88
2023-03-05T19:39:09.337Z,55.72
2023-03-05T19:41:38.326Z,55.54
2023-03-05T19:44:06.766Z,55.98
2023-03-05T19:46:36.219Z,55.47
2023-03-05T19:49:04.541Z,55.42
2023-03-05T19:51:32.311Z,54.75
2023-03-05T19:54:00.116Z,54.25
2023-03-05T19:56:28.017Z,53.46
2023-03-05T19:58:55.884Z,52.76
2023-03-05T20:01:25.995Z,52.42
2023-03-05T20:03:57.274Z,52.18
2023-03-05T20:06:26.444Z,52.48
2023-03-05T20:08:55.678Z,53.31
2023-03-05T20:11:24.538Z,53.58
2023-03-05T20:13:53.479Z,54.14
2023-03-05T20:16:25.152Z,54.34
2023-03-05T20:18:55.580Z,54.28
2023-03-05T20:21:25.644Z,54.73
2023-03-05T20:23:55.860Z,55.17
2023-03-05T20:26:25.780Z,55.52
2023-03-05T20:28:54.357Z,55.69
2023-03-05T20:31:23.284Z,55.32
2023-03-05T20:33:51.373Z,55.38
2023-03-05T20:36:20.824Z,55.95
2023-03-05T20:38:48.573Z,56.22
2023-03-05T20:41:18.007Z,55.92
2023-03-05T20:43:47.678Z,56.46
2023-03-05T20:46:17.810Z,56.07
2023-03-05T20:48:48.020Z,56.09
2023-03-05T20:51:18.688Z,56.42
2023-03-05T20:53:47.796Z,56.73
2023-03-05T20:56:15.586Z,56.67
2023-03-05T20:58:43.350Z,57.08
2023-03-05T21:01:11.175Z,56.62
2023-03-05T21:03:39.213Z,56.95
2023-03-05T21:06:07.590Z,56.54
2023-03-05T21:08:35.306Z,56.39
2023-03-05T21:11:08.135Z,57.39
2023-03-05T21:13:36.725Z,57.07
2023-03-05T21:16:07.844Z,57.10
2023-03-05T21:18:36.031Z,57.09
2023-03-05T21:21:04.204Z,56.92
2023-03-05T21:23:31.948Z,56.99
2023-03-05T21:25:59.926Z,56.51
2023-03-05T21:28:29.529Z,57.18
2023-03-05T21:30:57.523Z,56.78
2023-03-05T21:33:27.277Z,57.42
2023-03-05T21:35:57.957Z,57.70
2023-03-05T21:38:29.812Z,57.11
2023-03-05T21:40:59.939Z,56.95
2023-03-05T21:43:31.164Z,56.91
2023-03-05T21:46:01.006Z,56.85
2023-03-05T21:48:28.994Z,56.77
2023-03-05T21:50:57.290Z,57.66
2023-03-05T21:53:25.443Z,57.32
2023-03-05T21:56:25.348Z,56.97
2023-03-05T21:58:55.015Z,57.01
2023-03-05T22:01:22.923Z,56.72
2023-03-05T22:03:51.561Z,57.35
2023-03-05T22:06:20.550Z,57.05
2023-03-05T22:08:48.663Z,57.38
2023-03-05T22:11:18.254Z,57.57
2023-03-05T22:13:46.035Z,57.65
2023-03-05T22:16:22.475Z,57.33
2023-03-05T22:18:50.240Z,57.28
2023-03-05T22:21:19.897Z,57.37
2023-03-05T22:23:47.728Z,57.59
2023-03-05T22:26:15.490Z,57.58
2023-03-05T22:28:43.513Z,57.84
2023-03-05T22:31:11.770Z,57.29
2023-03-05T22:33:41.232Z,57.47
2023-03-05T22:36:10.777Z,57.63
2023-03-05T22:38:38.520Z,56.88
2023-03-05T22:41:09.278Z,57.84
2023-03-05T22:43:37.747Z,57.56
2023-03-05T22:46:12.870Z,58.06
2023-03-05T22:48:42.249Z,57.54
2023-03-05T22:51:11.339Z,57.70
2023-03-05T22:53:39.758Z,57.36
2023-03-05T22:56:08.503Z,57.05
2023-03-05T22:58:36.517Z,57.65
2023-03-05T23:01:04.989Z,57.48
2023-03-05T23:03:32.789Z,57.11
2023-03-05T23:06:01.841Z,57.89
2023-03-05T23:08:29.572Z,57.01
2023-03-05T23:10:57.286Z,57.36
2023-03-05T23:13:25.001Z,57.96
2023-03-05T23:15:52.785Z,57.74
2023-03-05T23:18:20.514Z,57.96
2023-03-05T23:20:48.241Z,57.37
2023-03-05T23:23:17.369Z,57.96
2023-03-05T23:25:45.029Z,57.58
2023-03-05T23:28:12.748Z,57.84
2023-03-05T23:30:40.512Z,57.85
2023-03-05T23:33:12.053Z,57.39
2023-03-05T23:35:42.396Z,58.20
2023-03-05T23:38:13.476Z,58.12
2023-03-05T23:40:44.945Z,57.79
2023-03-05T23:43:13.391Z,58.13
2023-03-05T23:45:42.530Z,57.45
2023-03-05T23:48:10.601Z,57.84
2023-03-05T23:50:41.503Z,57.54
2023-03-05T23:53:10.167Z,57.71
2023-03-05T23:55:43.059Z,57.47
2023-03-05T23:58:11.320Z,57.92
